Time;durP1;ratioP1;P1;durP2;ratioP2;P2;SDS_P1;SDS_P2;PMS_P1;PMS_P2;Temp;Humidity;BMP_temperature;BMP_pressure;BME280_temperature;BME280_humidity;BME280_pressure;Samples;Min_cycle;Max_cycle;Signal;HPM_P1;HPM_P2
2023/07/15 00:02:09;;;;;;;10.38;3.53;;;23.80;58.80;;;;;;5106167;27;20088;-74
2023/07/15 00:04:35;;;;;;;6.05;2.88;;;23.80;59.30;;;;;;5113408;27;20028;-74
2023/07/15 00:07:05;;;;;;;8.77;2.95;;;23.70;59.50;;;;;;5113602;28;20036;-73
2023/07/15 00:09:30;;;;;;;8.57;2.70;;;23.70;59.80;;;;;;5113367;27;20031;-74
2023/07/15 00:11:56;;;;;;;5.60;2.65;;;23.70;60.10;;;;;;5112305;27;20028;-74
2023/07/15 00:14:23;;;;;;;9.05;2.78;;;23.70;60.40;;;;;;5117347;27;20026;-75
2023/07/15 00:16:50;;;;;;;6.45;2.33;;;23.70;60.60;;;;;;5115608;27;20051;-76
2023/07/15 00:19:19;;;;;;;7.05;2.58;;;23.70;60.90;;;;;;5094453;27;20047;-73
2023/07/15 00:21:46;;;;;;;6.28;2.20;;;23.70;61.00;;;;;;5093599;27;20036;-75
2023/07/15 00:24:12;;;;;;;7.32;2.67;;;23.60;61.50;;;;;;5095611;27;20097;-75
2023/07/15 00:26:39;;;;;;;7.32;2.60;;;23.60;61.40;;;;;;5112065;27;20449;-76
2023/07/15 00:29:05;;;;;;;5.10;2.58;;;23.60;61.80;;;;;;5112792;27;20016;-75
2023/07/15 00:31:32;;;;;;;7.63;2.88;;;23.60;62.40;;;;;;5112322;27;20054;-75
2023/07/15 00:33:58;;;;;;;4.57;2.20;;;23.50;62.70;;;;;;5113091;27;20521;-75
2023/07/15 00:36:24;;;;;;;6.00;2.15;;;23.50;62.80;;;;;;5112673;27;20067;-75
2023/07/15 00:38:50;;;;;;;5.85;2.47;;;23.50;63.40;;;;;;5114065;27;20066;-74
2023/07/15 00:41:20;;;;;;;5.25;2.20;;;23.40;63.70;;;;;;5110519;27;20036;-74
2023/07/15 00:43:52;;;;;;;5.75;2.20;;;23.40;64.40;;;;;;5122451;27;20019;-74
2023/07/15 00:46:18;;;;;;;4.68;2.00;;;23.40;64.70;;;;;;5112124;27;20088;-73
2023/07/15 00:49:01;;;;;;;5.50;2.35;;;23.30;65.50;;;;;;5112139;28;20031;-75
2023/07/15 00:51:28;;;;;;;3.70;1.95;;;23.20;66.30;;;;;;5101450;27;20039;-74
2023/07/15 00:53:54;;;;;;;4.53;1.90;;;23.20;66.50;;;;;;5102690;28;20019;-75
2023/07/15 00:56:22;;;;;;;5.80;2.30;;;23.10;67.00;;;;;;5108242;28;20395;-76
2023/07/15 00:58:49;;;;;;;12.10;2.40;;;23.10;67.20;;;;;;5106039;28;20015;-75
2023/07/15 01:01:15;;;;;;;5.25;2.20;;;23.10;67.40;;;;;;5107872;27;20486;-74
2023/07/15 01:03:41;;;;;;;7.18;2.60;;;23.10;67.40;;;;;;5108820;28;20024;-74
2023/07/15 01:06:07;;;;;;;4.88;2.45;;;23.00;68.00;;;;;;5089920;28;20097;-74
2023/07/15 01:08:32;;;;;;;7.63;2.38;;;23.00;68.30;;;;;;5109309;28;20023;-74
2023/07/15 01:10:58;;;;;;;5.35;2.28;;;23.00;68.60;;;;;;5090798;28;20388;-74
2023/07/15 01:13:24;;;;;;;5.38;2.20;;;23.00;68.70;;;;;;5107868;27;20031;-75
2023/07/15 01:15:50;;;;;;;5.18;2.53;;;22.90;68.90;;;;;;5111026;27;20046;-74
2023/07/15 01:18:16;;;;;;;6.53;2.47;;;23.00;69.00;;;;;;5109265;28;20500;-76
2023/07/15 01:20:42;;;;;;;6.18;2.60;;;22.80;69.20;;;;;;5107428;28;20047;-74
2023/07/15 01:23:07;;;;;;;7.32;2.30;;;22.80;69.70;;;;;;5107992;28;20028;-75
2023/07/15 01:25:33;;;;;;;5.68;2.70;;;22.80;69.90;;;;;;5108101;27;20479;-75
2023/07/15 01:27:59;;;;;;;5.07;2.42;;;22.90;70.00;;;;;;5109106;28;20020;-74
2023/07/15 01:30:25;;;;;;;4.78;2.80;;;22.90;70.00;;;;;;5109050;27;20074;-75
2023/07/15 01:32:50;;;;;;;6.93;3.33;;;22.90;70.20;;;;;;5109533;28;20472;-75
2023/07/15 01:35:16;;;;;;;4.70;2.40;;;22.90;70.40;;;;;;5108309;27;20039;-74
2023/07/15 01:37:42;;;;;;;6.75;2.60;;;22.80;70.80;;;;;;5108580;28;20019;-75
2023/07/15 01:40:09;;;;;;;6.03;2.38;;;22.80;71.20;;;;;;5102213;28;20019;-76
2023/07/15 01:42:35;;;;;;;6.28;2.40;;;22.70;71.70;;;;;;5104256;28;20114;-75
2023/07/15 01:45:02;;;;;;;5.00;2.05;;;22.70;71.90;;;;;;5098800;27;20020;-75
2023/07/15 01:47:29;;;;;;;5.53;2.30;;;22.60;72.60;;;;;;5109648;28;20056;-75
2023/07/15 01:49:54;;;;;;;5.40;2.30;;;22.60;72.60;;;;;;5110600;28;20124;-78
2023/07/15 01:52:20;;;;;;;5.95;2.20;;;22.60;72.90;;;;;;5112010;27;20028;-75
2023/07/15 01:54:45;;;;;;;5.78;2.30;;;22.60;73.40;;;;;;5108123;28;20026;-75
2023/07/15 01:57:11;;;;;;;4.63;2.53;;;22.60;73.40;;;;;;5107477;28;20216;-76
2023/07/15 01:59:37;;;;;;;4.65;2.20;;;22.60;73.80;;;;;;5108452;28;20031;-75
2023/07/15 02:02:03;;;;;;;4.13;2.17;;;22.50;74.00;;;;;;5106893;27;20016;-74
2023/07/15 02:04:29;;;;;;;6.50;2.30;;;22.40;74.40;;;;;;5089835;28;20361;-75
2023/07/15 02:06:54;;;;;;;9.85;2.88;;;22.40;74.70;;;;;;5108707;27;20047;-75
2023/07/15 02:09:20;;;;;;;6.35;2.67;;;22.30;75.20;;;;;;5107923;28;20023;-74
2023/07/15 02:11:47;;;;;;;6.80;2.75;;;22.20;75.60;;;;;;5107518;27;20426;-75
2023/07/15 02:14:12;;;;;;;5.95;2.50;;;22.20;75.70;;;;;;5108326;28;20023;-75
2023/07/15 02:16:38;;;;;;;5.80;2.63;;;22.20;75.60;;;;;;5097847;27;20048;-74
2023/07/15 02:19:04;;;;;;;8.48;3.20;;;22.10;75.70;;;;;;5108017;28;20026;-76
2023/07/15 02:21:29;;;;;;;9.13;2.63;;;22.20;75.60;;;;;;5089832;28;20042;-77
2023/07/15 02:23:55;;;;;;;5.00;2.60;;;22.10;75.60;;;;;;5109331;28;20027;-76
2023/07/15 02:26:21;;;;;;;7.35;3.47;;;22.10;75.60;;;;;;5086755;28;20124;-77
2023/07/15 02:28:46;;;;;;;5.25;2.67;;;22.10;75.90;;;;;;5106801;28;20492;-75
2023/07/15 02:31:12;;;;;;;4.50;2.42;;;22.00;76.20;;;;;;5088322;28;20035;-77
2023/07/15 02:33:38;;;;;;;7.15;2.65;;;22.00;76.30;;;;;;5109273;28;20027;-75
2023/07/15 02:36:04;;;;;;;4.43;2.45;;;21.90;76.50;;;;;;5107893;28;20040;-75
2023/07/15 02:38:33;;;;;;;2.67;2.10;;;21.90;76.30;;;;;;5109316;27;20031;-75
2023/07/15 02:40:59;;;;;;;4.60;2.42;;;21.80;76.20;;;;;;5106702;27;20032;-75
2023/07/15 02:43:25;;;;;;;5.15;2.13;;;21.80;76.20;;;;;;5107786;28;20027;-75
2023/07/15 02:45:51;;;;;;;3.33;1.80;;;21.70;75.70;;;;;;5107514;27;20063;-75
2023/07/15 02:48:19;;;;;;;4.45;1.95;;;21.70;74.20;;;;;;5108448;28;20115;-76
2023/07/15 02:50:45;;;;;;;6.57;2.17;;;21.70;73.80;;;;;;5108061;27;20032;-75
2023/07/15 02:53:11;;;;;;;6.82;2.15;;;21.60;73.00;;;;;;5107781;28;20027;-76
2023/07/15 02:55:37;;;;;;;3.72;1.63;;;21.60;73.00;;;;;;5112823;27;20071;-75
2023/07/15 02:58:03;;;;;;;3.58;1.58;;;21.40;72.70;;;;;;5120895;27;20027;-75
2023/07/15 03:00:29;;;;;;;3.80;1.80;;;21.50;72.00;;;;;;5088958;27;20488;-75
2023/07/15 03:02:55;;;;;;;3.22;1.48;;;21.40;71.90;;;;;;5105867;28;20040;-75
2023/07/15 03:05:20;;;;;;;3.72;1.60;;;21.30;72.20;;;;;;5105969;27;20395;-75
2023/07/15 03:07:47;;;;;;;5.28;1.60;;;21.20;72.60;;;;;;5098348;28;20028;-75
2023/07/15 03:10:15;;;;;;;3.08;1.52;;;21.10;72.70;;;;;;5104790;28;20023;-76
2023/07/15 03:12:42;;;;;;;4.60;1.83;;;21.10;72.90;;;;;;5107695;27;20023;-75
2023/07/15 03:15:09;;;;;;;4.15;1.80;;;21.00;73.00;;;;;;5105319;27;20524;-75
2023/07/15 03:17:35;;;;;;;5.40;1.85;;;21.10;72.90;;;;;;5091757;28;20080;-74
2023/07/15 03:20:14;;;;;;;4.57;1.80;;;21.10;73.20;;;;;;5085512;27;20088;-75
2023/07/15 03:22:40;;;;;;;5.00;1.75;;;21.00;73.30;;;;;;5106710;28;20104;-75
2023/07/15 03:25:07;;;;;;;4.97;1.80;;;21.00;73.60;;;;;;5091100;28;20127;-75
2023/07/15 03:27:32;;;;;;;3.42;1.98;;;21.00;73.40;;;;;;5106333;28;20479;-76
2023/07/15 03:29:58;;;;;;;6.15;2.88;;;21.10;73.30;;;;;;5114964;27;20052;-75
2023/07/15 03:32:24;;;;;;;6.55;2.53;;;21.10;73.40;;;;;;5106243;28;20076;-75
2023/07/15 03:34:49;;;;;;;7.50;2.40;;;21.10;73.20;;;;;;5105286;28;20095;-76
2023/07/15 03:37:15;;;;;;;5.70;2.10;;;21.10;73.10;;;;;;5106764;27;20067;-74
2023/07/15 03:39:41;;;;;;;4.53;1.83;;;21.10;72.60;;;;;;5106669;28;20553;-74
2023/07/15 03:42:07;;;;;;;3.47;1.58;;;21.10;72.20;;;;;;5105554;27;20066;-74
2023/07/15 03:44:32;;;;;;;3.42;1.58;;;21.00;70.90;;;;;;5106089;28;20114;-75
2023/07/15 03:46:58;;;;;;;3.90;1.65;;;20.90;70.20;;;;;;5120144;27;20039;-75
2023/07/15 03:49:24;;;;;;;3.78;1.40;;;20.80;70.20;;;;;;5105917;28;20020;-75
2023/07/15 03:51:50;;;;;;;3.60;1.60;;;20.80;70.40;;;;;;5105306;28;20480;-74
2023/07/15 03:54:16;;;;;;;4.10;1.70;;;20.80;70.40;;;;;;5087721;28;20433;-74
2023/07/15 03:56:42;;;;;;;5.88;2.10;;;20.70;71.00;;;;;;5105098;27;20038;-75
2023/07/15 03:59:07;;;;;;;4.90;1.70;;;20.60;71.00;;;;;;5105947;28;20049;-74
2023/07/15 04:01:35;;;;;;;6.80;2.28;;;20.60;71.10;;;;;;5105245;27;20031;-74
2023/07/15 04:04:05;;;;;;;4.55;1.67;;;20.60;71.10;;;;;;5118824;28;20020;-75
2023/07/15 04:06:34;;;;;;;5.15;2.08;;;20.60;70.90;;;;;;5106029;28;20556;-74
2023/07/15 04:08:59;;;;;;;4.15;1.40;;;20.60;70.90;;;;;;5127507;27;20023;-74
2023/07/15 04:11:25;;;;;;;7.28;2.30;;;20.60;71.30;;;;;;5108262;27;20137;-75
2023/07/15 04:13:51;;;;;;;5.35;1.77;;;20.60;71.20;;;;;;5106231;28;20024;-74
2023/07/15 04:16:17;;;;;;;4.28;1.85;;;20.60;71.10;;;;;;5104988;27;20418;-74
2023/07/15 04:18:43;;;;;;;4.53;2.00;;;20.60;70.70;;;;;;5105520;28;20089;-75
2023/07/15 04:21:08;;;;;;;5.28;2.10;;;20.60;70.90;;;;;;5117220;27;20035;-75
2023/07/15 04:23:34;;;;;;;5.85;2.40;;;20.60;71.00;;;;;;5116348;28;20039;-74
2023/07/15 04:26:00;;;;;;;5.20;2.60;;;20.70;71.00;;;;;;5107266;28;20040;-74
2023/07/15 04:28:26;;;;;;;4.72;2.22;;;20.70;70.70;;;;;;5110259;28;20023;-75
2023/07/15 04:30:51;;;;;;;6.03;2.63;;;20.70;70.50;;;;;;5107290;27;20048;-75
2023/07/15 04:33:17;;;;;;;5.93;2.20;;;20.70;70.40;;;;;;5109795;28;20020;-74
2023/07/15 04:35:46;;;;;;;4.88;1.98;;;20.70;70.60;;;;;;5108083;27;20540;-74
2023/07/15 04:38:11;;;;;;;5.53;2.28;;;20.80;70.70;;;;;;5091458;28;20020;-77
2023/07/15 04:40:37;;;;;;;6.07;2.40;;;20.80;70.40;;;;;;5108655;28;20039;-74
2023/07/15 04:43:02;;;;;;;5.50;2.10;;;20.90;70.40;;;;;;5103358;28;20567;-74
2023/07/15 04:45:32;;;;;;;4.45;1.95;;;21.00;70.40;;;;;;5090343;28;20032;-74
2023/07/15 04:47:58;;;;;;;6.20;1.95;;;21.00;70.00;;;;;;5108990;28;20127;-75
2023/07/15 04:50:24;;;;;;;3.75;2.03;;;21.00;69.80;;;;;;5108668;28;20122;-75
2023/07/15 04:52:50;;;;;;;5.70;1.73;;;21.00;69.90;;;;;;5108174;27;20028;-75
2023/07/15 04:55:15;;;;;;;6.15;1.88;;;21.00;69.40;;;;;;5108375;28;20032;-75
2023/07/15 04:57:41;;;;;;;6.03;2.25;;;21.00;69.50;;;;;;5109419;28;20057;-75
2023/07/15 05:00:16;;;;;;;5.35;1.92;;;21.00;69.50;;;;;;5108228;27;20022;-74
2023/07/15 05:02:42;;;;;;;5.70;1.90;;;21.10;69.40;;;;;;5109296;27;20024;-75
2023/07/15 05:05:08;;;;;;;4.78;1.73;;;21.10;69.00;;;;;;5090822;27;20026;-74
2023/07/15 05:07:33;;;;;;;4.43;1.85;;;21.10;68.90;;;;;;5109165;28;20400;-74
2023/07/15 05:10:02;;;;;;;6.60;1.80;;;21.10;69.10;;;;;;5108926;27;20468;-74
2023/07/15 05:12:28;;;;;;;4.65;1.73;;;21.10;69.00;;;;;;5124629;27;20409;-76
2023/07/15 05:14:53;;;;;;;3.28;1.50;;;21.10;69.20;;;;;;5107858;28;20026;-76
2023/07/15 05:17:19;;;;;;;4.72;1.65;;;21.10;69.30;;;;;;5108035;27;20539;-76
2023/07/15 05:19:45;;;;;;;4.82;1.73;;;21.10;68.40;;;;;;5108144;28;20398;-76
2023/07/15 05:22:12;;;;;;;7.65;2.45;;;21.10;68.00;;;;;;5108444;27;20046;-76
2023/07/15 05:24:38;;;;;;;4.68;1.75;;;21.10;66.90;;;;;;5108871;28;20090;-76
2023/07/15 05:27:05;;;;;;;7.68;1.92;;;21.20;66.40;;;;;;5107439;28;20483;-76
2023/07/15 05:29:31;;;;;;;4.93;1.52;;;21.30;66.10;;;;;;5097043;28;20027;-75
2023/07/15 05:31:57;;;;;;;3.38;1.52;;;21.20;65.90;;;;;;5107562;27;20058;-76
2023/07/15 05:34:22;;;;;;;4.25;1.60;;;21.20;66.00;;;;;;5107401;28;20034;-76
2023/07/15 05:36:48;;;;;;;5.07;1.77;;;21.30;66.00;;;;;;5082975;28;20071;-76
2023/07/15 05:39:14;;;;;;;4.90;1.85;;;21.40;66.40;;;;;;5104276;27;20020;-76
2023/07/15 05:41:39;;;;;;;5.72;1.80;;;21.40;66.30;;;;;;5107962;27;20440;-75
2023/07/15 05:44:06;;;;;;;5.88;1.90;;;21.30;66.20;;;;;;5094757;28;20107;-76
2023/07/15 05:46:32;;;;;;;5.18;1.80;;;21.30;66.60;;;;;;5107951;27;20050;-75
2023/07/15 05:48:58;;;;;;;7.25;1.90;;;21.40;65.80;;;;;;5089115;28;20252;-75
2023/07/15 05:51:24;;;;;;;7.38;1.70;;;21.40;65.60;;;;;;5107787;28;20020;-76
2023/07/15 05:53:50;;;;;;;4.32;1.60;;;21.40;65.20;;;;;;5107251;27;20024;-76
2023/07/15 05:56:15;;;;;;;6.60;1.95;;;21.40;65.40;;;;;;5089959;28;20039;-76
2023/07/15 05:58:41;;;;;;;4.15;1.63;;;21.50;65.30;;;;;;5106788;27;20095;-75
2023/07/15 06:01:07;;;;;;;5.28;1.95;;;21.50;65.30;;;;;;5108787;27;20051;-76
2023/07/15 06:03:32;;;;;;;6.30;2.25;;;21.50;65.20;;;;;;5116605;27;20023;-75
2023/07/15 06:06:02;;;;;;;7.80;2.10;;;21.60;64.90;;;;;;5107007;28;20064;-76
2023/07/15 06:08:27;;;;;;;3.47;1.45;;;21.60;64.80;;;;;;5107594;27;20027;-75
2023/07/15 06:10:53;;;;;;;4.30;1.55;;;21.60;64.60;;;;;;5115492;27;20031;-76
2023/07/15 06:13:19;;;;;;;4.43;1.83;;;21.80;64.50;;;;;;5117100;27;20023;-76
2023/07/15 06:15:50;;;;;;;4.65;1.63;;;21.80;63.90;;;;;;5107153;28;20076;-76
2023/07/15 06:18:16;;;;;;;3.45;1.77;;;22.00;63.30;;;;;;5104092;28;20038;-75
2023/07/15 06:20:42;;;;;;;5.15;1.75;;;22.00;63.00;;;;;;5106336;27;20035;-76
2023/07/15 06:23:07;;;;;;;6.30;1.90;;;21.80;63.40;;;;;;5105027;28;20020;-76
2023/07/15 06:25:33;;;;;;;6.40;2.08;;;21.80;63.30;;;;;;5088764;28;20054;-75
2023/07/15 06:27:59;;;;;;;5.63;1.75;;;21.80;63.30;;;;;;5107105;28;20048;-75
2023/07/15 06:30:26;;;;;;;4.50;1.90;;;21.80;63.00;;;;;;5106630;27;20503;-75
2023/07/15 06:32:51;;;;;;;4.75;1.67;;;21.90;62.50;;;;;;5104563;28;20472;-75
2023/07/15 06:35:17;;;;;;;5.63;1.90;;;22.10;62.90;;;;;;5106935;28;20035;-74
2023/07/15 06:37:49;;;;;;;5.35;1.83;;;22.30;62.10;;;;;;5106396;28;20024;-75
2023/07/15 06:40:16;;;;;;;7.13;1.67;;;22.50;61.60;;;;;;5106690;27;20122;-75
2023/07/15 06:42:46;;;;;;;4.55;1.50;;;22.60;61.10;;;;;;5109950;27;20023;-75
2023/07/15 06:45:12;;;;;;;5.03;1.65;;;22.80;61.00;;;;;;5081993;28;20077;-75
2023/07/15 06:47:38;;;;;;;4.82;1.80;;;23.00;60.60;;;;;;5090304;28;20040;-75
2023/07/15 06:50:04;;;;;;;7.47;2.10;;;23.20;60.80;;;;;;5089374;27;20032;-74
2023/07/15 06:52:30;;;;;;;5.25;1.63;;;23.40;60.50;;;;;;5106880;28;20026;-74
2023/07/15 06:54:56;;;;;;;6.82;1.90;;;23.60;59.60;;;;;;5104970;28;20024;-75
2023/07/15 06:57:22;;;;;;;5.55;1.80;;;23.60;59.80;;;;;;5106965;28;20042;-75
2023/07/15 06:59:47;;;;;;;4.18;1.80;;;23.80;60.10;;;;;;5106694;28;20510;-74
2023/07/15 07:02:14;;;;;;;4.15;1.80;;;24.10;59.30;;;;;;5108460;27;20027;-75
2023/07/15 07:04:39;;;;;;;4.93;1.60;;;24.20;58.30;;;;;;5112521;27;20024;-75
2023/07/15 07:07:05;;;;;;;5.60;1.90;;;24.40;57.10;;;;;;5109579;27;20042;-75
2023/07/15 07:09:31;;;;;;;5.43;1.80;;;24.40;57.10;;;;;;5093238;28;20480;-75
2023/07/15 07:11:57;;;;;;;4.03;1.60;;;24.50;56.50;;;;;;5105255;27;20538;-75
2023/07/15 07:14:23;;;;;;;5.82;1.63;;;24.60;55.80;;;;;;5087626;28;20372;-75
2023/07/15 07:16:49;;;;;;;4.25;1.60;;;24.80;55.00;;;;;;5104728;27;20024;-74
2023/07/15 07:19:14;;;;;;;5.68;2.28;;;25.00;55.10;;;;;;5106877;28;20019;-75
2023/07/15 07:21:40;;;;;;;6.40;1.92;;;25.00;55.00;;;;;;5104729;27;20467;-75
2023/07/15 07:24:06;;;;;;;4.50;1.70;;;25.00;54.80;;;;;;5106048;28;20035;-75
2023/07/15 07:26:32;;;;;;;5.72;1.95;;;24.80;54.80;;;;;;5104776;28;20044;-74
2023/07/15 07:28:58;;;;;;;5.63;1.88;;;24.60;55.10;;;;;;5087705;28;20027;-75
2023/07/15 07:31:24;;;;;;;5.78;1.70;;;24.60;55.20;;;;;;5104538;27;20098;-75
2023/07/15 07:33:49;;;;;;;3.78;1.73;;;24.50;55.30;;;;;;5105263;28;20495;-76
2023/07/15 07:36:15;;;;;;;5.85;1.95;;;24.60;54.60;;;;;;5105172;28;20028;-75
2023/07/15 07:38:41;;;;;;;6.75;1.80;;;24.30;55.20;;;;;;5106040;28;20030;-75
2023/07/15 07:41:08;;;;;;;5.28;1.90;;;24.50;55.30;;;;;;5104415;28;20039;-75
2023/07/15 07:43:36;;;;;;;3.30;1.65;;;24.60;54.70;;;;;;5105931;28;20020;-74
2023/07/15 07:46:04;;;;;;;3.95;1.70;;;24.70;55.60;;;;;;5104977;28;20193;-75
2023/07/15 07:48:29;;;;;;;5.65;1.90;;;24.80;55.30;;;;;;5108425;28;20027;-76
2023/07/15 07:50:56;;;;;;;4.97;1.77;;;25.00;55.60;;;;;;5105210;28;20385;-76
2023/07/15 07:53:22;;;;;;;5.95;2.15;;;25.00;54.90;;;;;;5105982;28;20024;-76
2023/07/15 07:55:50;;;;;;;4.30;1.88;;;25.10;54.50;;;;;;5101060;28;20027;-76
2023/07/15 07:58:16;;;;;;;6.93;2.00;;;25.40;54.60;;;;;;5087173;28;20479;-76
2023/07/15 08:00:41;;;;;;;7.38;2.13;;;25.80;54.00;;;;;;5111400;27;20031;-76
2023/07/15 08:03:07;;;;;;;8.77;2.45;;;25.90;52.50;;;;;;5110844;27;20472;-76
2023/07/15 08:05:32;;;;;;;6.55;1.80;;;25.60;53.20;;;;;;5109340;28;20042;-75
2023/07/15 08:07:58;;;;;;;5.18;2.33;;;25.60;53.60;;;;;;5109499;28;20028;-74
2023/07/15 08:10:24;;;;;;;5.43;2.10;;;25.50;53.30;;;;;;5108814;27;20027;-75
2023/07/15 08:12:49;;;;;;;5.70;2.30;;;25.40;53.80;;;;;;5099826;28;20020;-75
2023/07/15 08:15:15;;;;;;;5.78;2.45;;;25.40;54.00;;;;;;5109044;28;20046;-75
2023/07/15 08:17:41;;;;;;;6.00;2.50;;;25.30;53.90;;;;;;5110434;28;20036;-75
2023/07/15 08:20:08;;;;;;;5.95;2.25;;;25.50;54.00;;;;;;5108848;27;20204;-74
2023/07/15 08:22:34;;;;;;;6.63;2.45;;;25.70;53.60;;;;;;5109511;27;20031;-75
2023/07/15 08:25:00;;;;;;;5.85;2.40;;;25.80;53.60;;;;;;5108586;28;20027;-75
2023/07/15 08:27:25;;;;;;;6.78;2.45;;;25.70;53.70;;;;;;5107646;28;20534;-75
2023/07/15 08:29:51;;;;;;;6.50;2.60;;;25.90;53.80;;;;;;5109027;28;20031;-75
2023/07/15 08:32:17;;;;;;;6.53;3.10;;;26.10;53.50;;;;;;5108236;27;20031;-75
2023/07/15 08:35:03;;;;;;;6.50;2.85;;;26.50;52.80;;;;;;5109329;28;20016;-76
2023/07/15 08:37:28;;;;;;;6.78;2.72;;;26.80;52.90;;;;;;5109314;28;20251;-75
2023/07/15 08:39:54;;;;;;;5.35;2.35;;;26.60;53.20;;;;;;5106476;28;20020;-75
2023/07/15 08:42:20;;;;;;;6.22;2.90;;;26.20;54.50;;;;;;5108612;27;20023;-75
2023/07/15 08:44:51;;;;;;;4.95;2.55;;;26.20;54.60;;;;;;5104486;27;20476;-75
2023/07/15 08:47:21;;;;;;;7.68;3.08;;;26.00;55.20;;;;;;5108719;28;20054;-75
2023/07/15 08:49:48;;;;;;;7.18;2.88;;;25.70;55.90;;;;;;5107915;28;20033;-75
2023/07/15 08:52:18;;;;;;;8.18;2.58;;;25.50;56.50;;;;;;5108606;28;20053;-75
2023/07/15 08:54:48;;;;;;;5.50;2.65;;;25.20;57.40;;;;;;5108574;27;20424;-76
2023/07/15 08:57:18;;;;;;;7.93;2.78;;;25.10;57.90;;;;;;5095678;28;20363;-75
2023/07/15 08:59:53;;;;;;;6.10;2.70;;;25.10;57.80;;;;;;5109229;28;20019;-75
2023/07/15 09:02:18;;;;;;;6.57;2.70;;;24.80;58.60;;;;;;5111827;27;20028;-75
2023/07/15 09:04:44;;;;;;;7.07;2.60;;;25.00;59.00;;;;;;5108988;28;20029;-75
2023/07/15 09:07:10;;;;;;;7.35;2.35;;;25.20;58.10;;;;;;5108271;28;20028;-75
2023/07/15 09:09:38;;;;;;;5.95;2.40;;;25.20;57.70;;;;;;5108969;28;20084;-75
2023/07/15 09:12:06;;;;;;;4.40;2.10;;;25.10;57.30;;;;;;5107001;27;20024;-75
2023/07/15 09:14:44;;;;;;;6.03;2.60;;;25.00;57.40;;;;;;5090787;28;20043;-75
2023/07/15 09:17:16;;;;;;;6.15;2.30;;;25.00;57.50;;;;;;5104738;28;20034;-75
2023/07/15 09:19:43;;;;;;;5.15;2.28;;;25.00;57.60;;;;;;5090515;28;20114;-75
2023/07/15 09:22:09;;;;;;;5.07;1.88;;;25.00;57.40;;;;;;5108484;27;20385;-75
2023/07/15 09:24:39;;;;;;;5.28;2.00;;;25.00;57.00;;;;;;5108797;28;20364;-74
2023/07/15 09:27:05;;;;;;;6.60;2.10;;;25.20;56.60;;;;;;5108040;28;20059;-75
2023/07/15 09:29:32;;;;;;;4.63;1.55;;;25.10;55.00;;;;;;5107106;27;20093;-75
2023/07/15 09:31:58;;;;;;;7.30;2.00;;;25.00;53.20;;;;;;5107645;27;20109;-75
2023/07/15 09:34:24;;;;;;;4.97;2.03;;;25.20;52.50;;;;;;5107629;28;20459;-75
2023/07/15 09:36:51;;;;;;;4.38;1.70;;;25.30;51.70;;;;;;5107805;28;20065;-76
2023/07/15 09:39:22;;;;;;;4.07;1.63;;;25.60;50.80;;;;;;5107318;28;20011;-75
2023/07/15 09:42:07;;;;;;;8.20;2.03;;;25.70;50.50;;;;;;5108324;27;20027;-76
2023/07/15 09:44:40;;;;;;;5.60;2.50;;;25.70;50.90;;;;;;5095912;28;20027;-76
2023/07/15 09:47:07;;;;;;;4.45;1.77;;;25.90;51.80;;;;;;5107163;27;20044;-75
2023/07/15 09:49:34;;;;;;;4.32;2.15;;;25.60;52.70;;;;;;5108101;28;20027;-75
2023/07/15 09:52:03;;;;;;;5.95;2.05;;;25.40;53.30;;;;;;5088819;28;20176;-75
2023/07/15 09:54:31;;;;;;;5.60;1.90;;;25.80;53.50;;;;;;5107858;28;20007;-75
2023/07/15 09:57:04;;;;;;;4.68;1.80;;;26.50;52.30;;;;;;5105606;27;20043;-75
2023/07/15 09:59:44;;;;;;;4.93;1.77;;;27.00;50.40;;;;;;5107995;28;20491;-74
2023/07/15 10:02:34;;;;;;;3.30;1.63;;;27.30;47.10;;;;;;5108622;27;20035;-74
2023/07/15 10:05:03;;;;;;;5.10;1.65;;;27.60;45.40;;;;;;5093251;28;20464;-74
2023/07/15 10:07:30;;;;;;;6.65;1.70;;;27.60;44.80;;;;;;5098275;28;20020;-75
2023/07/15 10:10:00;;;;;;;5.68;1.42;;;27.70;44.50;;;;;;5106425;28;20015;-75
2023/07/15 10:12:27;;;;;;;4.97;1.60;;;27.70;44.40;;;;;;5107140;28;20104;-76
2023/07/15 10:14:53;;;;;;;3.55;1.70;;;27.50;45.70;;;;;;5107492;28;20020;-75
2023/07/15 10:17:19;;;;;;;6.90;1.40;;;27.50;45.80;;;;;;5116891;27;20043;-75
2023/07/15 10:19:50;;;;;;;3.83;1.40;;;27.60;44.60;;;;;;5088623;28;20047;-75
2023/07/15 10:22:20;;;;;;;5.40;1.50;;;27.70;44.10;;;;;;5105543;27;20531;-75
2023/07/15 10:24:57;;;;;;;4.03;1.55;;;28.00;43.80;;;;;;5106884;28;20020;-75
2023/07/15 10:27:30;;;;;;;2.83;1.38;;;28.00;43.80;;;;;;5119844;27;20039;-74
2023/07/15 10:30:18;;;;;;;4.53;1.45;;;28.00;43.60;;;;;;5094765;27;20081;-74
2023/07/15 10:32:59;;;;;;;4.93;1.40;;;28.10;43.70;;;;;;5104710;28;20038;-75
2023/07/15 10:35:29;;;;;;;4.15;1.50;;;28.30;42.40;;;;;;5106011;28;20027;-75
2023/07/15 10:37:56;;;;;;;6.43;1.63;;;28.50;42.40;;;;;;5101515;28;20028;-74
2023/07/15 10:40:47;;;;;;;5.43;1.75;;;28.70;42.40;;;;;;5099703;27;20039;-75
2023/07/15 10:43:18;;;;;;;4.00;1.50;;;28.50;43.20;;;;;;5100267;28;20055;-76
2023/07/15 10:45:54;;;;;;;4.35;1.55;;;28.30;42.10;;;;;;5105357;27;20036;-76
2023/07/15 10:48:21;;;;;;;3.88;1.52;;;28.10;42.50;;;;;;5088753;28;20020;-76
2023/07/15 10:50:48;;;;;;;5.45;1.55;;;27.90;42.60;;;;;;5105776;28;20035;-76
2023/07/15 10:53:26;;;;;;;4.50;1.40;;;27.80;43.00;;;;;;5106354;28;20050;-76
2023/07/15 10:56:03;;;;;;;3.65;1.50;;;28.10;43.10;;;;;;5105005;28;20452;-75
2023/07/15 10:58:30;;;;;;;6.15;1.45;;;28.20;42.90;;;;;;5106749;28;20027;-74
2023/07/15 11:01:04;;;;;;;5.10;1.33;;;28.40;41.60;;;;;;5087459;28;20055;-75
2023/07/15 11:03:31;;;;;;;2.58;1.05;;;28.20;41.90;;;;;;5106132;28;20085;-74
2023/07/15 11:06:03;;;;;;;4.30;1.67;;;28.10;41.50;;;;;;5102299;28;20034;-74
2023/07/15 11:08:30;;;;;;;3.50;1.27;;;28.10;42.10;;;;;;5103331;28;20031;-75
2023/07/15 11:10:59;;;;;;;3.38;1.48;;;28.50;42.10;;;;;;5098350;27;20035;-74
2023/07/15 11:13:25;;;;;;;4.97;1.38;;;28.60;41.30;;;;;;5087768;28;20083;-75
2023/07/15 11:15:51;;;;;;;5.30;1.52;;;28.90;41.40;;;;;;5105350;28;20503;-74
2023/07/15 11:18:18;;;;;;;7.63;1.73;;;29.10;40.20;;;;;;5107909;27;20027;-74
2023/07/15 11:20:46;;;;;;;3.55;1.45;;;29.10;39.80;;;;;;5105900;28;20084;-74
2023/07/15 11:23:12;;;;;;;5.25;1.40;;;29.10;39.10;;;;;;5105819;28;20020;-74
2023/07/15 11:25:38;;;;;;;4.53;1.52;;;29.10;39.00;;;;;;5106238;28;20031;-74
2023/07/15 11:28:04;;;;;;;3.05;1.50;;;29.00;39.00;;;;;;5119489;27;20360;-74
2023/07/15 11:30:34;;;;;;;4.38;1.50;;;29.00;39.70;;;;;;5104970;27;20070;-74
2023/07/15 11:33:01;;;;;;;5.72;1.33;;;29.20;39.20;;;;;;5104837;28;20043;-74
2023/07/15 11:35:30;;;;;;;5.43;1.67;;;29.60;39.50;;;;;;5105413;28;20115;-74
2023/07/15 11:37:56;;;;;;;5.03;1.45;;;29.70;39.10;;;;;;5105341;28;20024;-75
2023/07/15 11:40:22;;;;;;;4.72;1.45;;;29.50;39.40;;;;;;5104676;27;20503;-75
2023/07/15 11:42:48;;;;;;;7.60;1.50;;;29.10;39.20;;;;;;5121281;27;20020;-75
2023/07/15 11:45:14;;;;;;;4.22;1.30;;;29.10;39.50;;;;;;5105581;27;20031;-74
2023/07/15 11:47:41;;;;;;;4.35;1.52;;;29.10;40.20;;;;;;5105387;28;20035;-75
2023/07/15 11:50:11;;;;;;;5.53;1.50;;;29.10;40.10;;;;;;5106051;28;20053;-75
2023/07/15 11:52:42;;;;;;;3.20;1.13;;;28.80;40.30;;;;;;5105695;28;20460;-75
2023/07/15 11:55:08;;;;;;;4.75;1.33;;;28.60;40.80;;;;;;5102635;28;20060;-74
2023/07/15 11:57:42;;;;;;;3.42;1.30;;;28.70;40.90;;;;;;5074955;28;20032;-74
2023/07/15 12:00:33;;;;;;;4.63;1.42;;;28.80;40.90;;;;;;5105582;27;20024;-74
2023/07/15 12:03:07;;;;;;;2.40;1.20;;;28.70;41.00;;;;;;5090597;28;20027;-75
2023/07/15 12:05:37;;;;;;;5.40;1.45;;;28.60;42.40;;;;;;5095550;28;20115;-75
2023/07/15 12:08:11;;;;;;;4.55;1.45;;;28.50;41.30;;;;;;5105516;28;20040;-75
2023/07/15 12:10:49;;;;;;;6.32;1.50;;;28.10;41.90;;;;;;5105332;28;20505;-75
2023/07/15 12:13:14;;;;;;;5.60;1.40;;;28.00;44.40;;;;;;5105088;28;20076;-75
2023/07/15 12:15:40;;;;;;;3.58;1.50;;;28.00;44.20;;;;;;5105819;27;20032;-75
2023/07/15 12:18:06;;;;;;;5.22;1.60;;;28.30;44.20;;;;;;5105038;28;20027;-75
2023/07/15 12:20:31;;;;;;;4.10;1.70;;;28.40;43.70;;;;;;5105304;27;20066;-75
2023/07/15 12:22:57;;;;;;;5.18;1.48;;;28.60;43.20;;;;;;5104824;28;20038;-75
2023/07/15 12:25:24;;;;;;;3.28;1.58;;;28.70;43.60;;;;;;5105518;28;20038;-75
2023/07/15 12:27:49;;;;;;;4.40;1.50;;;28.80;41.90;;;;;;5075125;28;20023;-75
2023/07/15 12:30:15;;;;;;;6.32;1.65;;;29.00;42.60;;;;;;5104319;27;20051;-74
2023/07/15 12:32:41;;;;;;;7.25;1.65;;;29.20;40.70;;;;;;5106193;28;20448;-75
2023/07/15 12:35:07;;;;;;;4.70;1.40;;;29.20;40.30;;;;;;5104457;28;20023;-75
2023/07/15 12:37:33;;;;;;;6.47;1.65;;;29.10;41.20;;;;;;5105596;28;20077;-75
2023/07/15 12:39:58;;;;;;;4.07;1.50;;;29.30;41.10;;;;;;5104773;27;20020;-76
2023/07/15 12:42:24;;;;;;;4.30;1.50;;;29.30;40.80;;;;;;5104543;28;20377;-76
2023/07/15 12:44:50;;;;;;;4.15;1.52;;;29.10;41.00;;;;;;5105149;28;20468;-75
2023/07/15 12:47:16;;;;;;;6.28;1.60;;;28.90;40.70;;;;;;5107503;27;20044;-75
2023/07/15 12:49:42;;;;;;;4.72;1.85;;;28.70;41.50;;;;;;5096003;28;20030;-75